Time;durP1;ratioP1;P1;durP2;ratioP2;P2;SDS_P1;SDS_P2;PMS_P1;PMS_P2;Temp;Humidity;BMP_temperature;BMP_pressure;BME280_temperature;BME280_humidity;BME280_pressure;Samples;Min_cycle;Max_cycle;Signal;HPM_P1;HPM_P2
2021/04/16 00:01:33;;;;;;;1.50;1.40;;;10.00;57.70;;;;;;5028529;28;20509;-83
2021/04/16 00:03:58;;;;;;;1.70;1.50;;;9.90;57.70;;;;;;5036023;28;20060;-88
2021/04/16 00:06:24;;;;;;;1.80;1.52;;;9.90;57.70;;;;;;5054826;28;20035;-83
2021/04/16 00:08:50;;;;;;;1.60;1.50;;;9.90;57.70;;;;;;5039160;28;20032;-84
2021/04/16 00:11:22;;;;;;;1.45;1.35;;;9.80;57.80;;;;;;5036093;28;20194;-84
2021/04/16 00:13:48;;;;;;;1.42;1.30;;;9.80;57.90;;;;;;5051552;28;20445;-83
2021/04/16 00:16:17;;;;;;;2.17;1.52;;;9.80;57.90;;;;;;5029739;28;20143;-90
2021/04/16 00:18:43;;;;;;;2.03;1.50;;;9.80;57.90;;;;;;5044497;28;20020;-83
2021/04/16 00:21:10;;;;;;;1.95;1.48;;;9.70;57.90;;;;;;5024329;28;20049;-83
2021/04/16 00:23:36;;;;;;;1.45;1.35;;;9.70;57.90;;;;;;5040079;28;20033;-83
2021/04/16 00:26:02;;;;;;;2.10;1.50;;;9.60;57.90;;;;;;5032882;28;20035;-84
2021/04/16 00:28:28;;;;;;;2.50;1.60;;;9.60;58.00;;;;;;5062585;28;20052;-83
2021/04/16 00:31:04;;;;;;;2.00;1.70;;;9.60;58.00;;;;;;5024386;28;20060;-85
2021/04/16 00:33:30;;;;;;;1.50;1.40;;;9.60;58.00;;;;;;5049269;28;20033;-83
2021/04/16 00:35:56;;;;;;;2.28;1.77;;;9.60;58.00;;;;;;5021561;28;20126;-84
2021/04/16 00:38:24;;;;;;;1.52;1.42;;;9.50;58.00;;;;;;5038286;28;20491;-83
2021/04/16 00:40:54;;;;;;;1.38;1.27;;;9.50;58.00;;;;;;5050514;28;20071;-84
2021/04/16 00:43:21;;;;;;;2.33;1.50;;;9.50;58.00;;;;;;5038374;28;20115;-83
2021/04/16 00:45:48;;;;;;;1.60;1.50;;;9.40;58.00;;;;;;5038834;28;20468;-83
2021/04/16 00:48:48;;;;;;;1.67;1.58;;;9.40;58.10;;;;;;5045159;28;20051;-83
2021/04/16 00:51:39;;;;;;;1.50;1.40;;;9.40;58.20;;;;;;5031055;28;20105;-83
2021/04/16 00:54:21;;;;;;;1.80;1.48;;;9.30;58.00;;;;;;5051434;28;20031;-83
2021/04/16 00:56:49;;;;;;;1.80;1.70;;;9.30;58.10;;;;;;5059256;28;20051;-83
2021/04/16 00:59:17;;;;;;;2.10;1.58;;;9.30;58.20;;;;;;5059845;28;20029;-82
2021/04/16 01:01:43;;;;;;;1.70;1.60;;;9.20;58.10;;;;;;5054761;28;20029;-84
2021/04/16 01:04:09;;;;;;;1.67;1.30;;;9.20;58.10;;;;;;5018506;28;20050;-83
2021/04/16 01:06:35;;;;;;;1.58;1.48;;;9.20;58.20;;;;;;5026935;28;20114;-85
2021/04/16 01:09:02;;;;;;;1.52;1.42;;;9.20;58.20;;;;;;5054772;28;20465;-83
2021/04/16 01:11:28;;;;;;;2.25;1.63;;;9.10;58.20;;;;;;5026985;28;20040;-83
2021/04/16 01:13:55;;;;;;;2.63;1.52;;;9.10;58.20;;;;;;5021885;28;20020;-83
2021/04/16 01:16:28;;;;;;;1.63;1.50;;;9.10;58.20;;;;;;5009231;28;20044;-83
2021/04/16 01:18:55;;;;;;;1.92;1.50;;;9.10;58.30;;;;;;5025019;28;20025;-83
2021/04/16 01:21:26;;;;;;;1.50;1.40;;;9.00;58.20;;;;;;5008026;28;20091;-83
2021/04/16 01:24:23;;;;;;;1.65;1.50;;;9.00;58.30;;;;;;5040558;28;20426;-85
2021/04/16 01:26:50;;;;;;;1.85;1.58;;;9.00;58.40;;;;;;5046112;28;20170;-83
2021/04/16 01:29:17;;;;;;;2.13;1.60;;;9.00;58.30;;;;;;5028781;28;20021;-83
2021/04/16 01:31:49;;;;;;;2.08;1.60;;;8.90;58.30;;;;;;5043921;28;20131;-83
2021/04/16 01:34:19;;;;;;;2.28;1.70;;;8.90;58.40;;;;;;5053911;28;20029;-85
2021/04/16 01:36:46;;;;;;;1.77;1.38;;;8.90;58.40;;;;;;5036853;28;20396;-83
2021/04/16 01:39:11;;;;;;;2.63;1.70;;;8.80;58.40;;;;;;5037947;28;20047;-83
2021/04/16 01:41:38;;;;;;;1.50;1.40;;;8.80;58.40;;;;;;5054397;28;20036;-83
2021/04/16 01:44:10;;;;;;;1.58;1.40;;;8.80;58.40;;;;;;5054553;28;20028;-83
2021/04/16 01:47:07;;;;;;;2.00;1.77;;;8.80;58.50;;;;;;5038075;28;20038;-83
2021/04/16 01:49:41;;;;;;;1.70;1.60;;;8.70;58.60;;;;;;5025910;28;20056;-83
2021/04/16 01:52:14;;;;;;;1.83;1.73;;;8.70;58.50;;;;;;5050992;28;20500;-85
2021/04/16 01:54:44;;;;;;;2.13;1.73;;;8.70;58.50;;;;;;5040073;28;20021;-83
2021/04/16 01:57:18;;;;;;;1.60;1.50;;;8.70;58.60;;;;;;5050072;28;20051;-84
2021/04/16 01:59:46;;;;;;;1.75;1.33;;;8.60;58.60;;;;;;5034976;28;20025;-83
2021/04/16 02:02:16;;;;;;;1.65;1.40;;;8.60;58.60;;;;;;5054599;28;20032;-82
2021/04/16 02:04:42;;;;;;;2.40;1.80;;;8.50;58.60;;;;;;5036794;28;20028;-87
2021/04/16 02:07:08;;;;;;;1.67;1.58;;;8.60;58.60;;;;;;5031456;28;20033;-83
2021/04/16 02:09:36;;;;;;;2.35;1.90;;;8.60;58.70;;;;;;5054229;28;20029;-82
2021/04/16 02:12:04;;;;;;;2.33;1.75;;;8.50;58.70;;;;;;5022221;28;20063;-85
2021/04/16 02:14:31;;;;;;;2.75;1.95;;;8.50;58.70;;;;;;5053404;28;20108;-83
2021/04/16 02:17:11;;;;;;;2.10;1.70;;;8.50;58.70;;;;;;5068460;28;20033;-85
2021/04/16 02:19:37;;;;;;;1.98;1.50;;;8.40;58.70;;;;;;5028353;28;20024;-88
2021/04/16 02:22:08;;;;;;;2.50;1.80;;;8.40;58.70;;;;;;5040470;28;20489;-84
2021/04/16 02:24:34;;;;;;;2.03;1.60;;;8.40;58.80;;;;;;5041406;28;20029;-84
2021/04/16 02:27:00;;;;;;;2.08;1.70;;;8.40;58.80;;;;;;5044627;28;20032;-83
2021/04/16 02:29:26;;;;;;;2.35;1.77;;;8.30;58.80;;;;;;5066241;28;20033;-83
2021/04/16 02:31:52;;;;;;;1.75;1.65;;;8.30;58.80;;;;;;5038298;28;20045;-85
2021/04/16 02:34:24;;;;;;;2.00;1.80;;;8.30;58.90;;;;;;5040291;28;20115;-83
2021/04/16 02:36:52;;;;;;;2.17;1.65;;;8.30;58.90;;;;;;5043089;28;20037;-83
2021/04/16 02:39:18;;;;;;;1.70;1.60;;;8.30;58.90;;;;;;5024318;28;20017;-83
2021/04/16 02:41:44;;;;;;;2.75;1.90;;;8.20;58.90;;;;;;5055855;28;20918;-83
2021/04/16 02:44:10;;;;;;;2.10;1.80;;;8.20;58.90;;;;;;5040937;28;20111;-83
2021/04/16 02:46:36;;;;;;;1.70;1.60;;;8.20;59.00;;;;;;5054643;28;20028;-83
2021/04/16 02:49:02;;;;;;;1.92;1.70;;;8.20;59.00;;;;;;5017564;28;20470;-84
2021/04/16 02:51:28;;;;;;;1.73;1.63;;;8.20;59.00;;;;;;5040847;28;20032;-84
2021/04/16 02:53:55;;;;;;;2.33;1.90;;;8.10;59.00;;;;;;5052672;28;20032;-83
2021/04/16 02:56:21;;;;;;;1.73;1.60;;;8.10;59.10;;;;;;5040498;28;20029;-83
2021/04/16 02:58:47;;;;;;;2.88;2.10;;;8.10;59.10;;;;;;5037566;28;20050;-83
2021/04/16 03:01:13;;;;;;;2.10;1.50;;;8.10;59.10;;;;;;5015333;28;20063;-83
2021/04/16 03:03:39;;;;;;;2.17;1.70;;;8.00;59.10;;;;;;5015834;28;20073;-83
2021/04/16 03:06:06;;;;;;;2.38;1.67;;;8.00;59.10;;;;;;5012802;28;20066;-83
2021/04/16 03:08:32;;;;;;;2.45;1.60;;;8.00;59.20;;;;;;5046215;28;20021;-83
2021/04/16 03:10:58;;;;;;;2.28;1.80;;;8.00;59.20;;;;;;5034333;28;20495;-83
2021/04/16 03:13:24;;;;;;;2.38;1.88;;;8.00;59.20;;;;;;5040610;28;20062;-83
2021/04/16 03:15:50;;;;;;;2.08;1.70;;;7.90;59.20;;;;;;5036100;28;20097;-84
2021/04/16 03:18:16;;;;;;;1.95;1.75;;;7.90;59.20;;;;;;5036632;28;20029;-84
2021/04/16 03:20:42;;;;;;;2.15;1.80;;;7.90;59.20;;;;;;5033245;28;20037;-83
2021/04/16 03:23:09;;;;;;;2.13;1.92;;;7.90;59.30;;;;;;5046000;28;20056;-83
2021/04/16 03:25:35;;;;;;;2.17;1.85;;;7.90;59.30;;;;;;5025359;28;20055;-83
2021/04/16 03:28:00;;;;;;;2.38;1.90;;;7.80;59.30;;;;;;5013030;28;20117;-83
2021/04/16 03:30:27;;;;;;;2.20;1.73;;;7.80;59.30;;;;;;5020587;28;20048;-83
2021/04/16 03:32:53;;;;;;;2.58;1.70;;;7.80;59.30;;;;;;5048810;28;20087;-83
2021/04/16 03:35:20;;;;;;;2.67;1.90;;;7.80;59.30;;;;;;5023541;28;20016;-83
2021/04/16 03:37:46;;;;;;;2.00;1.80;;;7.80;59.40;;;;;;5039648;28;20055;-84
2021/04/16 03:40:16;;;;;;;2.08;1.88;;;7.80;59.40;;;;;;5039975;28;20465;-83
2021/04/16 03:42:42;;;;;;;1.83;1.67;;;7.70;59.40;;;;;;5024696;28;20074;-83
2021/04/16 03:45:09;;;;;;;3.22;2.15;;;7.70;59.40;;;;;;5040589;28;20029;-84
2021/04/16 03:47:34;;;;;;;2.35;1.90;;;7.70;59.40;;;;;;5034905;28;20017;-83
2021/04/16 03:50:00;;;;;;;2.15;1.80;;;7.70;59.40;;;;;;5045230;28;20047;-84
2021/04/16 03:52:27;;;;;;;2.70;1.80;;;7.70;59.50;;;;;;5027943;28;20052;-83
2021/04/16 03:54:54;;;;;;;2.80;1.90;;;7.60;59.50;;;;;;5064220;28;20443;-83
2021/04/16 03:57:21;;;;;;;2.70;1.70;;;7.60;59.50;;;;;;5051947;28;20016;-83
2021/04/16 03:59:47;;;;;;;2.58;2.05;;;7.60;59.50;;;;;;5041141;28;20064;-84
2021/04/16 04:02:13;;;;;;;2.97;1.90;;;7.60;59.60;;;;;;5054752;28;20017;-84
2021/04/16 04:04:39;;;;;;;1.80;1.70;;;7.60;59.60;;;;;;5037773;28;20029;-83
2021/04/16 04:07:05;;;;;;;2.35;1.70;;;7.60;59.60;;;;;;5036643;28;20587;-83
2021/04/16 04:09:32;;;;;;;1.70;1.60;;;7.60;59.60;;;;;;5046382;28;20483;-83
2021/04/16 04:11:57;;;;;;;2.38;1.80;;;7.50;59.60;;;;;;5036971;28;20040;-83
2021/04/16 04:14:23;;;;;;;2.15;1.67;;;7.50;59.60;;;;;;5016257;28;20371;-83
2021/04/16 04:17:01;;;;;;;1.88;1.73;;;7.50;59.60;;;;;;5033428;28;20035;-83
2021/04/16 04:19:29;;;;;;;2.10;1.90;;;7.50;59.70;;;;;;5037347;28;20029;-83
2021/04/16 04:21:56;;;;;;;2.20;1.80;;;7.40;59.60;;;;;;5049797;28;20048;-84
2021/04/16 04:24:23;;;;;;;3.22;1.80;;;7.40;59.70;;;;;;5052020;28;20029;-83
2021/04/16 04:26:49;;;;;;;2.55;1.90;;;7.40;59.70;;;;;;5054603;28;20078;-83
2021/04/16 04:29:17;;;;;;;2.50;1.98;;;7.40;59.80;;;;;;5028665;28;20097;-82
2021/04/16 04:31:47;;;;;;;1.98;1.70;;;7.40;59.80;;;;;;5043618;28;20087;-83
2021/04/16 04:34:22;;;;;;;2.15;1.80;;;7.30;59.70;;;;;;5052321;28;20091;-83
2021/04/16 04:36:50;;;;;;;2.20;1.90;;;7.30;59.80;;;;;;5072397;28;20028;-83
2021/04/16 04:39:17;;;;;;;3.80;1.90;;;7.30;59.80;;;;;;5055517;28;20024;-84
2021/04/16 04:41:43;;;;;;;2.95;2.25;;;7.30;59.80;;;;;;5045927;28;20123;-89
2021/04/16 04:44:09;;;;;;;2.65;2.22;;;7.30;59.80;;;;;;5053651;28;20028;-85
2021/04/16 04:46:35;;;;;;;2.20;1.92;;;7.20;59.80;;;;;;5031744;28;20047;-89
2021/04/16 04:49:02;;;;;;;2.47;2.20;;;7.30;59.90;;;;;;5038474;28;20033;-84
2021/04/16 04:51:28;;;;;;;2.55;1.92;;;7.30;59.90;;;;;;5045352;28;20032;-83
2021/04/16 04:53:53;;;;;;;2.67;2.00;;;7.20;59.90;;;;;;5012228;28;20094;-84
2021/04/16 04:56:20;;;;;;;3.95;2.10;;;7.20;59.90;;;;;;5040728;28;20119;-84
2021/04/16 04:58:45;;;;;;;2.67;1.65;;;7.20;59.90;;;;;;5021959;28;20041;-84
2021/04/16 05:01:11;;;;;;;2.22;1.95;;;7.20;59.90;;;;;;5067315;28;20047;-84
2021/04/16 05:03:37;;;;;;;2.53;2.08;;;7.20;60.00;;;;;;5021880;28;20356;-85
2021/04/16 05:06:03;;;;;;;1.70;1.60;;;7.20;60.00;;;;;;5058565;28;20381;-84
2021/04/16 05:08:29;;;;;;;2.20;1.98;;;7.20;60.00;;;;;;4993782;28;20025;-85
2021/04/16 05:10:54;;;;;;;3.28;2.20;;;7.20;60.00;;;;;;5024284;28;20048;-85
2021/04/16 05:13:20;;;;;;;3.33;2.28;;;7.20;60.10;;;;;;5038480;28;20036;-82
2021/04/16 05:15:46;;;;;;;2.97;2.15;;;7.10;60.70;;;;;;5038573;28;20037;-81
2021/04/16 05:18:12;;;;;;;3.20;2.00;;;7.10;60.10;;;;;;5024549;28;20381;-82
2021/04/16 05:20:38;;;;;;;3.55;1.92;;;7.10;60.10;;;;;;5025726;28;20116;-85
2021/04/16 05:23:03;;;;;;;3.25;2.25;;;7.10;60.20;;;;;;5054327;28;20040;-80
2021/04/16 05:25:29;;;;;;;2.75;1.92;;;7.10;60.20;;;;;;5022183;28;20048;-79
2021/04/16 05:27:55;;;;;;;3.13;2.10;;;7.10;60.20;;;;;;5021133;28;20032;-80
2021/04/16 05:30:21;;;;;;;2.63;2.05;;;7.10;60.20;;;;;;5054023;28;20040;-79
2021/04/16 05:32:47;;;;;;;2.63;2.17;;;7.00;60.20;;;;;;5004597;28;20108;-81
2021/04/16 05:35:14;;;;;;;2.42;1.75;;;7.10;60.20;;;;;;5053693;28;20120;-83
2021/04/16 05:37:40;;;;;;;2.90;2.25;;;7.00;60.20;;;;;;5037442;28;20016;-82
2021/04/16 05:40:06;;;;;;;2.10;1.90;;;7.00;60.20;;;;;;5036455;28;20101;-82
2021/04/16 05:42:32;;;;;;;2.08;1.88;;;7.00;60.30;;;;;;5043748;28;20096;-82
2021/04/16 05:45:00;;;;;;;3.00;2.40;;;7.00;60.30;;;;;;5023673;28;20124;-82
2021/04/16 05:47:30;;;;;;;3.80;2.13;;;7.00;60.30;;;;;;5041741;28;20112;-82
2021/04/16 05:50:17;;;;;;;2.65;2.08;;;7.00;60.30;;;;;;5038551;28;20036;-81
2021/04/16 05:52:43;;;;;;;3.55;2.30;;;7.00;60.40;;;;;;5038565;28;20029;-81
2021/04/16 05:55:10;;;;;;;2.47;2.08;;;7.00;60.30;;;;;;5056795;28;20029;-82
2021/04/16 05:57:35;;;;;;;2.42;2.10;;;7.00;60.40;;;;;;5022461;28;20036;-82
2021/04/16 06:00:02;;;;;;;2.35;1.80;;;7.00;60.40;;;;;;5006245;28;20131;-81
2021/04/16 06:02:34;;;;;;;2.50;1.98;;;7.00;60.40;;;;;;5060589;28;20035;-82
2021/04/16 06:05:05;;;;;;;3.22;2.15;;;7.00;60.40;;;;;;5068835;28;20021;-82
2021/04/16 06:07:32;;;;;;;2.80;2.40;;;7.00;60.50;;;;;;5039166;28;20025;-82
2021/04/16 06:09:59;;;;;;;2.70;2.20;;;7.00;60.50;;;;;;5038466;28;20064;-81
2021/04/16 06:12:26;;;;;;;2.45;2.10;;;7.00;60.50;;;;;;5021771;28;20124;-84
2021/04/16 06:14:52;;;;;;;2.72;2.20;;;7.00;60.60;;;;;;5038068;28;20028;-81
2021/04/16 06:17:18;;;;;;;2.35;2.05;;;7.00;60.60;;;;;;5047393;28;20366;-81
2021/04/16 06:19:48;;;;;;;3.28;2.40;;;6.90;60.50;;;;;;5048049;28;20017;-81
2021/04/16 06:22:15;;;;;;;3.22;2.33;;;6.90;60.60;;;;;;5041891;28;20056;-81
2021/04/16 06:24:40;;;;;;;1.83;1.65;;;6.90;60.60;;;;;;5039094;28;20033;-81
2021/04/16 06:27:07;;;;;;;2.95;2.17;;;7.00;60.60;;;;;;5024865;28;20055;-83
2021/04/16 06:29:33;;;;;;;2.97;2.40;;;6.90;60.60;;;;;;5024894;28;20025;-80
2021/04/16 06:31:59;;;;;;;3.33;2.42;;;6.90;60.60;;;;;;5041183;28;20044;-82
2021/04/16 06:34:25;;;;;;;2.25;2.05;;;6.90;60.60;;;;;;5058140;28;20041;-82
2021/04/16 06:36:51;;;;;;;2.53;2.17;;;6.90;60.60;;;;;;5057423;28;20024;-83
2021/04/16 06:39:17;;;;;;;2.20;1.83;;;7.00;60.70;;;;;;5075288;28;20107;-83
2021/04/16 06:41:46;;;;;;;3.05;2.22;;;7.00;60.70;;;;;;5075512;28;20031;-90
2021/04/16 06:44:30;;;;;;;2.53;2.10;;;7.00;60.70;;;;;;5053445;28;20033;-83
2021/04/16 06:47:29;;;;;;;2.78;2.13;;;7.00;60.70;;;;;;5075473;28;20042;-82
2021/04/16 06:49:57;;;;;;;2.42;2.05;;;7.00;60.80;;;;;;5013885;28;20448;-84
2021/04/16 06:52:40;;;;;;;3.35;2.20;;;7.00;60.70;;;;;;5023032;28;20027;-81
2021/04/16 06:55:09;;;;;;;3.35;2.15;;;7.00;60.80;;;;;;5041082;28;20519;-81
2021/04/16 06:58:14;;;;;;;3.28;2.13;;;7.00;60.70;;;;;;5043806;28;20028;-84
2021/04/16 07:00:53;;;;;;;3.03;2.33;;;7.00;60.90;;;;;;4958209;28;20042;-83
2021/04/16 07:03:25;;;;;;;2.72;2.05;;;7.00;60.80;;;;;;5058520;28;20458;-81
2021/04/16 07:05:55;;;;;;;3.53;2.00;;;7.00;60.80;;;;;;5047947;28;20697;-83
2021/04/16 07:08:34;;;;;;;1.70;1.60;;;7.10;60.80;;;;;;5032184;28;20032;-82
2021/04/16 07:11:03;;;;;;;3.25;2.35;;;7.10;60.90;;;;;;5037733;28;20043;-83
2021/04/16 07:13:35;;;;;;;2.15;1.92;;;7.10;60.90;;;;;;5048591;28;20016;-86
2021/04/16 07:16:01;;;;;;;3.20;2.13;;;7.10;61.00;;;;;;5044727;28;20029;-83
2021/04/16 07:18:35;;;;;;;3.92;2.15;;;7.20;61.00;;;;;;5034716;28;20055;-83
2021/04/16 07:21:01;;;;;;;3.78;2.40;;;7.20;61.10;;;;;;5036304;28;20103;-84
2021/04/16 07:23:27;;;;;;;2.38;2.00;;;7.20;61.00;;;;;;5040634;28;20468;-83
2021/04/16 07:26:19;;;;;;;2.92;2.03;;;7.20;61.00;;;;;;5038269;28;20107;-84
2021/04/16 07:28:51;;;;;;;2.55;2.00;;;7.20;61.20;;;;;;5042156;28;20039;-83
2021/04/16 07:31:29;;;;;;;2.65;2.30;;;7.30;61.10;;;;;;5056320;28;20103;-83
2021/04/16 07:33:57;;;;;;;3.58;2.30;;;7.30;61.20;;;;;;5074908;28;20331;-82
2021/04/16 07:36:31;;;;;;;2.88;2.28;;;7.30;61.10;;;;;;5050505;28;20048;-82
2021/04/16 07:39:13;;;;;;;3.38;2.50;;;7.40;61.20;;;;;;5039990;28;20021;-83
2021/04/16 07:41:48;;;;;;;2.47;2.13;;;7.30;61.20;;;;;;5040290;28;20419;-82
2021/04/16 07:44:33;;;;;;;2.33;2.10;;;7.40;61.10;;;;;;5037095;28;20070;-83
2021/04/16 07:47:02;;;;;;;3.45;2.30;;;7.40;61.10;;;;;;5073892;28;20469;-83
2021/04/16 07:49:38;;;;;;;2.88;1.92;;;7.40;61.00;;;;;;5055421;28;20063;-83
2021/04/16 07:52:39;;;;;;;3.33;2.40;;;7.40;61.10;;;;;;5072684;28;20040;-84
2021/04/16 07:55:08;;;;;;;2.85;1.90;;;7.50;61.30;;;;;;5065759;28;20028;-84
2021/04/16 07:57:37;;;;;;;2.30;2.10;;;7.50;61.00;;;;;;5049077;28;20100;-83
2021/04/16 08:00:09;;;;;;;3.53;2.30;;;7.50;61.10;;;;;;5058743;28;20136;-82
2021/04/16 08:03:09;;;;;;;2.88;2.15;;;7.50;61.10;;;;;;5065324;28;20035;-83
2021/04/16 08:05:55;;;;;;;2.55;1.90;;;7.60;61.20;;;;;;5041045;28;20198;-84
2021/04/16 08:08:26;;;;;;;2.13;1.92;;;7.60;61.20;;;;;;5043618;28;20025;-87
2021/04/16 08:11:15;;;;;;;2.78;1.85;;;7.60;61.10;;;;;;5040221;28;20048;-85
2021/04/16 08:13:45;;;;;;;3.20;2.10;;;7.60;61.20;;;;;;5047313;28;20028;-83
2021/04/16 08:16:16;;;;;;;2.00;1.77;;;7.60;61.10;;;;;;5038829;28;20075;-82
2021/04/16 08:18:45;;;;;;;2.08;1.88;;;7.70;61.20;;;;;;5038402;28;20028;-87
2021/04/16 08:21:13;;;;;;;3.15;2.30;;;7.70;61.10;;;;;;5052666;28;20098;-84
2021/04/16 08:24:00;;;;;;;2.70;2.20;;;7.70;61.10;;;;;;5038188;28;20021;-83
2021/04/16 08:26:35;;;;;;;3.10;2.22;;;7.80;61.20;;;;;;5037659;28;20075;-81
2021/04/16 08:29:05;;;;;;;;;;;7.80;61.00;;;;;;5035991;28;20033;-82
2021/04/16 08:31:52;;;;;;;2.08;1.80;;;7.80;60.90;;;;;;5038454;28;19912;-84
2021/04/16 08:34:27;;;;;;;2.10;1.70;;;7.90;60.80;;;;;;5045844;28;20450;-82
2021/04/16 08:36:57;;;;;;;2.05;1.70;;;7.90;60.80;;;;;;5050305;28;20021;-86
2021/04/16 08:39:41;;;;;;;2.40;1.88;;;8.00;60.80;;;;;;5039158;28;20100;-82
2021/04/16 08:42:21;;;;;;;2.22;1.95;;;8.00;60.80;;;;;;5038337;28;20024;-84
2021/04/16 08:44:55;;;;;;;2.15;1.92;;;8.10;60.80;;;;;;5053710;28;20028;-82
2021/04/16 08:47:25;;;;;;;2.15;1.80;;;8.20;60.80;;;;;;5038697;28;20111;-83
2021/04/16 08:49:55;;;;;;;2.53;1.63;;;8.20;60.60;;;;;;5035712;28;20115;-82
2021/04/16 08:52:30;;;;;;;2.78;1.77;;;8.30;60.60;;;;;;5048011;28;20032;-81
2021/04/16 08:55:07;;;;;;;;;;;8.30;60.50;;;;;;5019536;28;20032;-85
2021/04/16 08:57:40;;;;;;;3.05;1.95;;;8.40;60.40;;;;;;5042644;28;19989;-82
2021/04/16 09:00:24;;;;;;;2.45;2.05;;;8.50;60.20;;;;;;5055180;28;20115;-84
2021/04/16 09:02:55;;;;;;;2.78;1.83;;;8.60;60.30;;;;;;5055273;28;20472;-82
2021/04/16 09:05:23;;;;;;;2.15;1.80;;;8.60;60.20;;;;;;5048275;28;20028;-84
2021/04/16 09:07:59;;;;;;;2.58;1.92;;;8.70;60.20;;;;;;5036713;28;20021;-86
2021/04/16 09:10:24;;;;;;;2.17;1.83;;;8.80;60.20;;;;;;5036258;28;20032;-85
2021/04/16 09:12:57;;;;;;;1.88;1.58;;;8.90;60.00;;;;;;5039438;28;20028;-85
2021/04/16 09:15:49;;;;;;;1.45;1.35;;;9.00;60.10;;;;;;5040031;28;20040;-86
2021/04/16 09:18:28;;;;;;;2.88;1.80;;;9.10;60.10;;;;;;5038635;28;20040;-85
2021/04/16 09:20:54;;;;;;;2.05;1.50;;;9.20;60.00;;;;;;5050737;28;20082;-84
2021/04/16 09:23:40;;;;;;;1.75;1.65;;;9.30;59.90;;;;;;5038542;28;20044;-85
2021/04/16 09:26:09;;;;;;;1.77;1.40;;;9.40;60.00;;;;;;5073383;28;20103;-88
2021/04/16 09:28:55;;;;;;;1.60;1.50;;;9.50;59.90;;;;;;5057207;28;20060;-85
2021/04/16 09:31:24;;;;;;;2.13;1.67;;;9.60;60.00;;;;;;5040043;28;20028;-86
2021/04/16 09:34:05;;;;;;;2.05;1.50;;;9.70;59.80;;;;;;5053520;28;20036;-84
2021/04/16 09:36:31;;;;;;;1.70;1.42;;;9.80;59.90;;;;;;5036538;28;20029;-85
2021/04/16 09:39:14;;;;;;;1.90;1.40;;;9.90;59.80;;;;;;5059212;28;20415;-84
2021/04/16 09:41:45;;;;;;;2.90;1.50;;;10.00;59.80;;;;;;5059688;28;20043;-85
2021/04/16 09:44:29;;;;;;;1.60;1.50;;;10.20;59.80;;;;;;5072523;28;20028;-85
2021/04/16 09:47:01;;;;;;;1.40;1.30;;;10.30;59.70;;;;;;5045039;28;20021;-86
2021/04/16 09:49:35;;;;;;;1.70;1.60;;;10.30;59.50;;;;;;5051403;28;20036;-85
2021/04/16 09:52:26;;;;;;;1.77;1.42;;;10.40;59.50;;;;;;5039892;28;20083;-86
2021/04/16 09:54:52;;;;;;;2.55;1.10;;;10.50;59.50;;;;;;5049492;28;20056;-85
2021/04/16 09:57:20;;;;;;;1.80;1.30;;;10.60;59.40;;;;;;5045567;28;20055;-85
2021/04/16 09:59:47;;;;;;;2.22;1.60;;;10.70;59.40;;;;;;5077560;28;20043;-85
2021/04/16 10:02:21;;;;;;;1.48;1.25;;;10.80;59.30;;;;;;5028303;28;20029;-85
2021/04/16 10:05:07;;;;;;;1.55;1.30;;;10.90;59.30;;;;;;5076772;28;20025;-85
2021/04/16 10:07:56;;;;;;;1.00;1.00;;;11.00;59.20;;;;;;5039160;28;20033;-85
2021/04/16 10:10:40;;;;;;;1.50;1.40;;;11.10;59.20;;;;;;5053741;28;20058;-84
2021/04/16 10:13:19;;;;;;;1.38;1.10;;;11.20;59.20;;;;;;5042276;28;20087;-88
2021/04/16 10:15:53;;;;;;;1.23;1.05;;;11.30;59.20;;;;;;5059604;28;20078;-85
2021/04/16 10:18:38;;;;;;;1.42;1.20;;;11.40;59.10;;;;;;5042121;28;20024;-85
2021/04/16 10:21:27;;;;;;;1.45;1.30;;;11.50;59.20;;;;;;5059325;28;20112;-85
2021/04/16 10:25:44;;;;;;;1.38;1.27;;;11.70;59.10;;;;;;5056169;28;20048;-86
2021/04/16 11:24:05;;;;;;;1.40;1.30;;;14.00;59.50;;;;;;5044646;28;20449;-90
2021/04/16 12:39:39;;;;;;;1.57;1.07;;;16.30;58.40;;;;;;5054807;28;20120;-85
2021/04/16 12:42:06;;;;;;;1.60;1.20;;;16.40;58.30;;;;;;5034076;28;20114;-85
2021/04/16 12:44:41;;;;;;;0.90;0.90;;;16.40;58.10;;;;;;5029291;28;20056;-84
2021/04/16 12:47:13;;;;;;;2.20;1.25;;;16.50;58.00;;;;;;5073868;28;20036;-84
2021/04/16 12:49:40;;;;;;;1.40;1.10;;;16.60;57.70;;;;;;5039393;28;20094;-84
2021/04/16 12:52:07;;;;;;;1.30;1.08;;;16.60;57.60;;;;;;5025375;28;20067;-84
2021/04/16 12:54:38;;;;;;;1.27;1.17;;;16.70;57.50;;;;;;5035854;28;20540;-84
2021/04/16 12:57:06;;;;;;;1.10;1.05;;;16.70;57.40;;;;;;5050630;28;20092;-84
2021/04/16 12:59:35;;;;;;;1.20;0.95;;;16.80;57.30;;;;;;5053542;28;20025;-84
2021/04/16 13:02:03;;;;;;;1.15;1.00;;;16.80;57.20;;;;;;5056091;28;20357;-83
2021/04/16 13:04:29;;;;;;;1.00;0.90;;;16.90;57.20;;;;;;5067277;28;20025;-88
2021/04/16 13:06:59;;;;;;;1.10;1.00;;;16.90;57.20;;;;;;5047215;28;20020;-83
2021/04/16 13:09:25;;;;;;;1.60;1.20;;;17.00;57.20;;;;;;5052801;28;20123;-81
2021/04/16 13:11:51;;;;;;;1.02;0.93;;;17.00;57.10;;;;;;5071370;28;20078;-82
2021/04/16 13:14:18;;;;;;;1.70;1.13;;;17.10;57.10;;;;;;5037592;28;20146;-85
2021/04/16 13:16:44;;;;;;;1.73;1.13;;;17.10;56.90;;;;;;5034141;28;20079;-81
2021/04/16 13:19:29;;;;;;;1.65;1.00;;;17.10;56.70;;;;;;5041981;28;20025;-85
2021/04/16 13:22:11;;;;;;;0.90;0.75;;;17.20;56.70;;;;;;5040071;28;20437;-85
2021/04/16 13:24:38;;;;;;;1.52;1.10;;;17.30;56.80;;;;;;5055305;28;20362;-84
2021/04/16 13:27:07;;;;;;;1.10;0.90;;;17.30;56.70;;;;;;5072942;28;20183;-84
2021/04/16 13:29:34;;;;;;;1.10;1.02;;;17.30;56.40;;;;;;5026925;28;20029;-87
2021/04/16 13:32:01;;;;;;;1.88;0.90;;;17.40;56.30;;;;;;5038711;28;20032;-84
2021/04/16 13:34:27;;;;;;;1.17;0.90;;;17.40;56.10;;;;;;5039302;28;20044;-84
2021/04/16 13:36:53;;;;;;;2.05;1.25;;;17.40;55.90;;;;;;5036468;28;20115;-85
2021/04/16 13:39:19;;;;;;;1.17;1.00;;;17.50;55.70;;;;;;5023582;28;20091;-84
2021/04/16 13:41:46;;;;;;;1.00;0.95;;;17.50;56.20;;;;;;5053573;28;20029;-84
2021/04/16 13:44:11;;;;;;;1.65;1.08;;;17.60;55.50;;;;;;5059109;28;20056;-85
2021/04/16 13:46:39;;;;;;;1.25;1.10;;;17.60;55.50;;;;;;5072697;28;20074;-85
2021/04/16 13:49:08;;;;;;;1.10;1.00;;;17.60;55.50;;;;;;5054916;28;20033;-84
2021/04/16 13:51:35;;;;;;;1.30;1.05;;;17.70;55.50;;;;;;5063920;28;20057;-84
2021/04/16 13:54:04;;;;;;;2.72;1.35;;;17.70;55.50;;;;;;5038291;28;20044;-84
2021/04/16 13:56:31;;;;;;;1.02;0.90;;;17.70;55.50;;;;;;5044699;28;20028;-84
2021/04/16 13:58:57;;;;;;;2.25;1.20;;;17.80;55.70;;;;;;5050629;28;20025;-83
2021/04/16 14:01:23;;;;;;;1.67;1.20;;;17.80;55.70;;;;;;5038011;28;20032;-86
2021/04/16 14:03:53;;;;;;;1.33;1.00;;;17.80;55.70;;;;;;5055038;28;20120;-84
2021/04/16 14:06:25;;;;;;;1.33;1.02;;;17.80;55.70;;;;;;5059364;28;20052;-85
2021/04/16 14:09:06;;;;;;;2.10;1.10;;;17.90;55.70;;;;;;5038400;28;20107;-85
2021/04/16 14:11:33;;;;;;;1.83;1.10;;;17.90;55.70;;;;;;5042174;28;20060;-84
2021/04/16 14:14:09;;;;;;;1.98;1.10;;;17.90;55.40;;;;;;5044152;28;20439;-83
2021/04/16 14:16:38;;;;;;;1.20;1.00;;;18.00;55.40;;;;;;5060471;28;20571;-84
2021/04/16 14:19:08;;;;;;;1.27;1.08;;;18.00;54.90;;;;;;5048851;28;20366;-84
2021/04/16 14:21:38;;;;;;;1.20;1.00;;;18.00;54.70;;;;;;5051963;28;20036;-84
2021/04/16 14:24:07;;;;;;;1.60;1.30;;;18.10;54.60;;;;;;5039439;28;20480;-83
2021/04/16 14:26:32;;;;;;;1.10;0.98;;;18.10;54.30;;;;;;5041279;28;20032;-85
2021/04/16 14:28:58;;;;;;;1.38;1.15;;;18.10;54.30;;;;;;5038143;28;20032;-84
2021/04/16 14:31:24;;;;;;;1.80;1.38;;;18.10;54.30;;;;;;5034744;28;20032;-85
2021/04/16 14:33:51;;;;;;;1.48;1.13;;;18.10;54.40;;;;;;5036171;28;20501;-85
2021/04/16 14:36:17;;;;;;;1.40;1.30;;;18.20;54.40;;;;;;5045706;28;20470;-85
2021/04/16 14:38:43;;;;;;;1.10;0.95;;;18.20;54.20;;;;;;5069820;28;20017;-84
2021/04/16 14:41:10;;;;;;;1.67;1.15;;;18.20;54.00;;;;;;5032880;28;20040;-86
2021/04/16 14:43:36;;;;;;;1.23;1.13;;;18.30;53.70;;;;;;5017022;28;20033;-86
2021/04/16 14:46:03;;;;;;;1.33;1.20;;;18.30;53.40;;;;;;5047616;28;20029;-85
2021/04/16 14:48:31;;;;;;;1.73;1.17;;;18.30;53.50;;;;;;5067480;28;20086;-82
2021/04/16 14:51:01;;;;;;;1.17;1.08;;;18.30;53.40;;;;;;5038733;28;20123;-82
2021/04/16 14:53:32;;;;;;;0.98;0.98;;;18.30;53.20;;;;;;5049141;28;20493;-84
2021/04/16 14:56:03;;;;;;;1.67;1.20;;;18.40;53.30;;;;;;5056957;28;20378;-85
2021/04/16 14:58:35;;;;;;;1.40;1.00;;;18.40;53.10;;;;;;5075643;28;20024;-82
2021/04/16 15:01:01;;;;;;;1.27;1.10;;;18.40;52.90;;;;;;5039113;28;20033;-83
2021/04/16 15:03:27;;;;;;;1.48;1.27;;;18.40;52.60;;;;;;5038690;28;20033;-83
2021/04/16 15:05:53;;;;;;;2.20;1.35;;;18.40;52.50;;;;;;5028527;28;20093;-82
2021/04/16 15:08:27;;;;;;;1.50;1.10;;;18.50;52.30;;;;;;5046393;28;20021;-83
2021/04/16 15:11:03;;;;;;;1.80;1.15;;;18.50;52.10;;;;;;5037361;28;20462;-83
2021/04/16 15:13:31;;;;;;;1.60;1.23;;;18.50;52.10;;;;;;5056475;28;20530;-84
2021/04/16 15:16:02;;;;;;;1.25;1.15;;;18.50;52.20;;;;;;5048131;28;20123;-83
2021/04/16 15:18:30;;;;;;;1.10;1.00;;;18.60;52.30;;;;;;5045054;28;20025;-84
2021/04/16 15:21:00;;;;;;;1.27;1.13;;;18.60;52.50;;;;;;5033095;28;20013;-80
2021/04/16 15:23:26;;;;;;;3.42;1.30;;;18.60;52.60;;;;;;5035739;28;20091;-81